createdAt,value
2017-10-19T00:00:23.411Z,50.70
2017-10-19T00:02:54.249Z,52.77
2017-10-19T00:05:25.117Z,52.80
2017-10-19T00:07:55.955Z,51.93
2017-10-19T00:10:26.814Z,53.30
2017-10-19T00:12:57.662Z,48.57
2017-10-19T00:15:28.542Z,57.77
2017-10-19T00:17:59.386Z,50.50
2017-10-19T00:20:30.275Z,46.40
2017-10-19T00:23:01.123Z,49.33
2017-10-19T00:25:32.068Z,50.57
2017-10-19T00:28:02.909Z,41.27
2017-10-19T00:30:33.783Z,44.80
2017-10-19T00:33:04.652Z,48.37
2017-10-19T00:35:35.496Z,47.00
2017-10-19T00:38:06.354Z,46.90
2017-10-19T00:40:37.207Z,49.67
2017-10-19T00:43:08.062Z,47.20
2017-10-19T00:45:38.924Z,42.80
2017-10-19T00:48:09.764Z,48.43
2017-10-19T00:50:40.636Z,49.90
2017-10-19T00:53:11.488Z,42.60
2017-10-19T00:55:42.364Z,41.80
2017-10-19T00:58:13.236Z,47.90
2017-10-19T01:00:44.095Z,51.67
2017-10-19T01:03:15.389Z,46.00
2017-10-19T01:05:46.227Z,52.10
2017-10-19T01:08:17.104Z,40.43
2017-10-19T01:10:47.932Z,43.67
2017-10-19T01:13:18.760Z,46.13
2017-10-19T01:15:49.571Z,39.00
2017-10-19T01:18:20.416Z,43.73
2017-10-19T01:20:51.395Z,41.97
2017-10-19T01:23:22.231Z,43.27
2017-10-19T01:25:53.076Z,39.30
2017-10-19T01:28:23.937Z,39.97
2017-10-19T01:30:54.780Z,43.37
2017-10-19T01:33:25.624Z,43.10
2017-10-19T01:35:56.491Z,39.03
2017-10-19T01:38:27.356Z,38.23
2017-10-19T01:40:58.208Z,40.10
2017-10-19T01:43:29.054Z,38.70
2017-10-19T01:45:59.908Z,40.47
2017-10-19T01:48:30.767Z,39.77
2017-10-19T01:51:01.635Z,39.60
2017-10-19T01:53:32.472Z,31.73
2017-10-19T01:56:03.376Z,44.10
2017-10-19T01:58:34.202Z,35.37
2017-10-19T02:01:05.041Z,32.23
2017-10-19T02:03:35.872Z,35.07
2017-10-19T02:06:06.743Z,42.30
2017-10-19T02:08:37.587Z,39.30
2017-10-19T02:11:08.460Z,40.27
2017-10-19T02:13:39.305Z,37.90
2017-10-19T02:16:10.170Z,36.00
2017-10-19T02:18:41.046Z,32.10
2017-10-19T02:21:11.896Z,32.20
2017-10-19T02:23:42.762Z,34.43
2017-10-19T02:26:13.627Z,35.33
2017-10-19T02:28:44.476Z,34.53
2017-10-19T02:31:15.315Z,36.77
2017-10-19T02:33:46.164Z,30.57
2017-10-19T02:36:17.018Z,31.70
2017-10-19T02:38:47.880Z,28.07
2017-10-19T02:41:18.724Z,29.47
2017-10-19T02:46:31.342Z,28.35
2017-10-19T02:49:02.184Z,31.67
2017-10-19T02:51:33.044Z,31.57
2017-10-19T02:54:03.879Z,30.47
2017-10-19T02:56:34.763Z,30.83
2017-10-19T02:59:05.721Z,30.67
2017-10-19T03:01:36.595Z,28.83
2017-10-19T03:04:07.430Z,27.77
2017-10-19T03:06:38.326Z,30.30
2017-10-19T03:09:09.160Z,29.63
2017-10-19T03:11:40.070Z,29.50
2017-10-19T03:14:10.947Z,27.27
2017-10-19T03:16:41.796Z,28.03
2017-10-19T03:19:12.639Z,28.77
2017-10-19T03:21:43.517Z,30.00
2017-10-19T03:24:14.348Z,26.83
2017-10-19T03:26:45.220Z,29.27
2017-10-19T03:29:16.077Z,24.93
2017-10-19T03:31:46.921Z,27.33
2017-10-19T03:34:17.786Z,29.60
2017-10-19T03:36:48.634Z,26.93
2017-10-19T03:39:19.502Z,27.67
2017-10-19T03:41:50.344Z,26.33
2017-10-19T03:44:21.198Z,29.20
2017-10-19T03:46:52.019Z,29.83
2017-10-19T03:49:22.884Z,30.50
2017-10-19T03:51:53.723Z,26.00
2017-10-19T03:54:24.582Z,22.67
2017-10-19T03:56:55.572Z,25.93
2017-10-19T03:59:26.403Z,23.93
2017-10-19T04:01:57.266Z,24.40
2017-10-19T04:04:28.096Z,28.03
2017-10-19T04:06:58.938Z,28.77
2017-10-19T04:09:29.802Z,23.37
2017-10-19T04:12:00.643Z,30.00
2017-10-19T04:14:31.506Z,30.23
2017-10-19T04:17:02.472Z,21.03
2017-10-19T04:19:33.332Z,26.17
2017-10-19T04:22:04.182Z,23.30
2017-10-19T04:24:35.036Z,29.47
2017-10-19T04:27:05.870Z,24.33
2017-10-19T04:29:36.730Z,21.60
2017-10-19T04:32:07.599Z,21.90
2017-10-19T04:34:38.446Z,22.13
2017-10-19T04:37:09.292Z,25.70
2017-10-19T04:39:40.143Z,23.60
2017-10-19T04:42:10.989Z,18.87
2017-10-19T04:44:41.841Z,27.30
2017-10-19T04:47:12.703Z,27.30
2017-10-19T04:49:43.552Z,21.50
2017-10-19T04:52:14.413Z,24.57
2017-10-19T04:54:45.243Z,22.10
2017-10-19T04:57:16.099Z,21.83
2017-10-19T04:59:46.955Z,23.90
2017-10-19T05:02:17.823Z,18.73
2017-10-19T05:04:48.691Z,22.20
2017-10-19T05:07:19.531Z,22.83
2017-10-19T05:09:50.493Z,21.27
2017-10-19T05:12:21.354Z,22.40
2017-10-19T05:14:52.187Z,19.03
2017-10-19T05:17:23.035Z,18.87
2017-10-19T05:19:53.874Z,24.43
2017-10-19T05:22:24.722Z,24.27
2017-10-19T05:24:55.576Z,21.63
2017-10-19T05:27:26.473Z,32.17
2017-10-19T05:29:57.302Z,31.23
2017-10-19T05:32:28.167Z,34.70
2017-10-19T05:34:59.024Z,39.83
2017-10-19T05:37:29.975Z,52.40
2017-10-19T05:40:00.797Z,45.93
2017-10-19T05:42:31.643Z,45.67
2017-10-19T05:45:02.503Z,45.40
2017-10-19T05:47:33.389Z,46.73
2017-10-19T05:50:04.247Z,33.90
2017-10-19T05:52:35.124Z,36.03
2017-10-19T05:55:05.990Z,38.77
2017-10-19T05:57:36.831Z,30.33
2017-10-19T06:00:07.692Z,31.53
2017-10-19T06:02:38.555Z,37.33
2017-10-19T06:05:09.409Z,33.10
2017-10-19T06:07:40.263Z,31.53
2017-10-19T06:10:11.127Z,29.50
2017-10-19T06:12:41.982Z,24.20
2017-10-19T06:15:12.823Z,27.47
2017-10-19T06:17:43.663Z,22.73
2017-10-19T06:20:14.549Z,22.10
2017-10-19T06:22:45.402Z,22.73
2017-10-19T06:25:16.244Z,24.20
2017-10-19T06:27:47.090Z,22.20
2017-10-19T06:30:17.951Z,19.20
2017-10-19T06:32:48.814Z,18.80
2017-10-19T06:35:19.643Z,20.10
2017-10-19T06:37:50.507Z,20.17
2017-10-19T06:40:21.352Z,17.13
2017-10-19T06:42:52.202Z,18.47
2017-10-19T06:45:23.064Z,22.63
2017-10-19T06:47:53.966Z,18.90
2017-10-19T06:50:24.813Z,16.60
2017-10-19T06:52:55.655Z,17.17
2017-10-19T06:55:26.496Z,18.00
2017-10-19T06:57:57.352Z,17.23
2017-10-19T07:00:28.204Z,18.83
2017-10-19T07:02:59.039Z,15.90
2017-10-19T07:05:29.920Z,16.97
2017-10-19T07:08:00.785Z,15.73
2017-10-19T07:10:31.788Z,15.10
2017-10-19T07:13:02.615Z,14.02
2017-10-19T07:15:33.575Z,13.03
2017-10-19T07:18:04.414Z,18.30
2017-10-19T07:20:35.251Z,16.83
2017-10-19T07:23:06.101Z,17.43
2017-10-19T07:25:36.970Z,13.80
2017-10-19T07:28:07.824Z,18.50
2017-10-19T07:30:38.669Z,14.20
2017-10-19T07:33:09.544Z,18.80
2017-10-19T07:35:40.400Z,11.87
2017-10-19T07:38:11.253Z,14.00
2017-10-19T07:40:42.111Z,13.57
2017-10-19T07:43:12.981Z,14.90
2017-10-19T07:45:43.829Z,12.27
2017-10-19T07:48:14.696Z,13.07
2017-10-19T07:50:45.540Z,12.33
2017-10-19T07:53:16.399Z,13.50
2017-10-19T07:55:47.252Z,14.70
2017-10-19T07:58:18.091Z,14.80
2017-10-19T08:00:48.953Z,19.73
2017-10-19T08:03:19.816Z,14.63
2017-10-19T08:05:50.681Z,15.10
2017-10-19T08:08:21.524Z,15.07
2017-10-19T08:10:52.375Z,16.03
2017-10-19T08:13:23.211Z,14.57
2017-10-19T08:15:55.672Z,14.30
2017-10-19T08:26:16.027Z,13.60
2017-10-19T08:28:46.907Z,16.40
2017-10-19T08:31:17.735Z,14.97
2017-10-19T08:33:48.596Z,17.40
2017-10-19T08:36:19.453Z,15.83
2017-10-19T08:38:50.342Z,14.80
2017-10-19T08:41:21.212Z,19.37
2017-10-19T08:43:52.062Z,16.87
2017-10-19T08:46:22.895Z,15.33
2017-10-19T08:48:53.768Z,14.17
2017-10-19T08:51:24.619Z,15.67
2017-10-19T08:53:55.475Z,14.33
2017-10-19T08:56:26.307Z,16.17
2017-10-19T08:58:57.168Z,19.53
2017-10-19T09:01:28.029Z,14.33
2017-10-19T09:03:58.892Z,18.30
2017-10-19T09:06:29.772Z,16.43
2017-10-19T09:09:00.635Z,13.00
2017-10-19T09:11:31.492Z,12.80
2017-10-19T09:14:02.343Z,14.87
2017-10-19T09:16:33.196Z,16.67
2017-10-19T09:19:04.055Z,12.17
2017-10-19T09:21:34.903Z,15.50
2017-10-19T09:24:05.740Z,13.73
2017-10-19T09:26:36.576Z,13.43
2017-10-19T09:29:07.415Z,12.40
2017-10-19T09:31:38.274Z,15.00
2017-10-19T09:34:09.109Z,12.03
2017-10-19T09:36:39.967Z,12.43
2017-10-19T09:39:10.814Z,15.10
2017-10-19T09:41:41.689Z,12.73
2017-10-19T09:44:12.533Z,14.27
2017-10-19T09:46:43.456Z,14.97
2017-10-19T09:49:14.294Z,12.33
2017-10-19T09:51:45.153Z,13.27
2017-10-19T09:54:16.000Z,10.17
2017-10-19T09:56:46.860Z,13.33
2017-10-19T09:59:17.725Z,13.63
2017-10-19T10:01:48.551Z,15.90
2017-10-19T10:04:19.387Z,15.00
2017-10-19T10:06:50.252Z,13.63
2017-10-19T10:09:21.145Z,11.40
2017-10-19T10:11:51.963Z,11.03
2017-10-19T10:14:22.825Z,13.30
2017-10-19T10:16:53.671Z,10.40
2017-10-19T10:19:24.512Z,14.90
2017-10-19T10:21:55.348Z,14.20
2017-10-19T10:24:26.197Z,12.87
2017-10-19T10:26:57.031Z,13.77
2017-10-19T10:29:27.883Z,11.77
2017-10-19T10:31:58.738Z,15.77
2017-10-19T10:34:29.594Z,12.53
2017-10-19T10:37:00.443Z,12.37
2017-10-19T10:39:31.352Z,9.90
2017-10-19T10:42:02.200Z,10.90
2017-10-19T10:44:33.065Z,12.37
2017-10-19T10:47:03.895Z,10.17
2017-10-19T10:49:34.816Z,12.13
2017-10-19T10:52:05.647Z,15.63
2017-10-19T10:54:36.493Z,10.93
2017-10-19T10:57:07.345Z,11.33
2017-10-19T10:59:38.204Z,11.03
2017-10-19T11:02:09.080Z,12.03
2017-10-19T11:04:39.910Z,11.07
2017-10-19T11:07:10.765Z,13.13
2017-10-19T11:09:41.607Z,10.00
2017-10-19T11:12:12.451Z,10.60
2017-10-19T11:14:43.320Z,14.57
2017-10-19T11:17:14.184Z,10.00
2017-10-19T11:19:45.035Z,11.53
2017-10-19T11:22:15.872Z,13.00
2017-10-19T11:24:46.724Z,11.90
2017-10-19T11:27:17.578Z,10.30
2017-10-19T11:29:48.436Z,11.50
2017-10-19T11:32:19.274Z,9.90
2017-10-19T11:34:50.123Z,13.50
2017-10-19T11:37:20.987Z,10.70
2017-10-19T11:39:51.843Z,10.37
2017-10-19T11:42:22.687Z,10.43
2017-10-19T11:44:53.544Z,9.80
2017-10-19T11:47:24.406Z,12.30
2017-10-19T11:49:55.271Z,10.17
2017-10-19T11:52:26.120Z,10.60
2017-10-19T11:54:56.974Z,10.87
2017-10-19T11:57:27.829Z,11.30
2017-10-19T11:59:58.765Z,11.13
2017-10-19T12:02:29.594Z,11.57
2017-10-19T12:05:00.464Z,13.10
2017-10-19T12:07:31.303Z,9.73
2017-10-19T12:10:02.161Z,8.90
2017-10-19T12:12:33.012Z,9.10
2017-10-19T12:15:03.846Z,11.93
2017-10-19T12:17:34.709Z,11.23
2017-10-19T12:20:05.544Z,10.43
2017-10-19T12:22:36.395Z,9.93
2017-10-19T12:25:07.215Z,10.80
2017-10-19T12:27:38.056Z,9.57
2017-10-19T12:30:08.913Z,7.83
2017-10-19T12:32:39.785Z,9.87
2017-10-19T12:35:10.627Z,9.87
2017-10-19T12:37:41.463Z,8.27
2017-10-19T12:40:12.320Z,9.50
2017-10-19T12:42:43.183Z,11.13
2017-10-19T12:45:14.032Z,9.77
2017-10-19T12:47:44.894Z,9.03
2017-10-19T12:50:15.743Z,11.83
2017-10-19T12:52:46.572Z,9.10
2017-10-19T12:55:17.419Z,8.67
2017-10-19T12:57:48.284Z,8.40
2017-10-19T13:00:19.107Z,9.87
2017-10-19T13:02:49.929Z,9.10
2017-10-19T13:05:20.752Z,9.07
2017-10-19T13:07:51.669Z,9.53
2017-10-19T13:10:22.490Z,9.00
2017-10-19T13:12:53.349Z,7.77
2017-10-19T13:15:24.217Z,8.80
2017-10-19T13:17:55.069Z,8.97
2017-10-19T13:20:25.915Z,9.27
2017-10-19T13:22:56.762Z,9.17
2017-10-19T13:25:27.603Z,8.00
2017-10-19T13:27:58.472Z,9.47
2017-10-19T13:30:29.331Z,8.63
2017-10-19T13:33:00.170Z,11.13
2017-10-19T13:35:31.023Z,8.30
2017-10-19T13:38:01.867Z,7.57
2017-10-19T13:40:32.736Z,8.37
2017-10-19T13:43:03.600Z,8.47
2017-10-19T13:45:34.466Z,8.17
2017-10-19T13:48:05.323Z,11.00
2017-10-19T13:50:36.186Z,8.10
2017-10-19T13:53:07.036Z,7.00
2017-10-19T13:55:37.896Z,9.40
2017-10-19T13:58:08.740Z,7.77
2017-10-19T14:00:39.611Z,6.90
2017-10-19T14:03:10.450Z,7.50
2017-10-19T14:05:41.321Z,7.00
2017-10-19T14:08:12.185Z,9.50
2017-10-19T14:10:43.023Z,10.60
2017-10-19T14:13:13.882Z,9.63
2017-10-19T14:15:44.722Z,8.10
2017-10-19T14:18:15.638Z,10.47
2017-10-19T14:20:46.496Z,7.17
2017-10-19T14:23:17.344Z,7.07
2017-10-19T14:25:48.176Z,6.60
2017-10-19T14:28:19.045Z,8.03
2017-10-19T14:30:49.903Z,7.17
2017-10-19T14:33:20.774Z,7.17
2017-10-19T14:35:51.616Z,7.30
2017-10-19T14:38:22.476Z,9.40
2017-10-19T14:40:54.073Z,8.90
2017-10-19T14:43:24.931Z,7.25
2017-10-19T14:45:55.781Z,7.33
2017-10-19T14:48:26.630Z,7.20
2017-10-19T14:50:57.542Z,6.83
2017-10-19T14:53:28.491Z,7.70
2017-10-19T14:55:59.349Z,8.20
2017-10-19T14:58:30.210Z,7.83
2017-10-19T15:01:01.053Z,7.20
2017-10-19T15:03:31.908Z,6.63
2017-10-19T15:06:02.864Z,7.40
2017-10-19T15:08:33.703Z,6.77
2017-10-19T15:11:04.559Z,6.93
2017-10-19T15:13:35.395Z,7.23
2017-10-19T15:16:06.233Z,8.20
2017-10-19T15:18:37.071Z,6.93
2017-10-19T15:21:08.001Z,6.77
2017-10-19T15:23:38.829Z,8.33
2017-10-19T15:26:09.662Z,8.37
2017-10-19T15:28:40.506Z,6.40
2017-10-19T15:31:11.382Z,6.67
2017-10-19T15:33:42.236Z,6.83
2017-10-19T15:36:13.093Z,7.13
2017-10-19T15:38:43.935Z,6.90
2017-10-19T15:41:14.790Z,6.40
2017-10-19T15:43:45.648Z,6.50
2017-10-19T15:46:16.504Z,6.20
2017-10-19T15:48:47.374Z,7.27
2017-10-19T15:51:18.232Z,5.47
2017-10-19T15:53:49.079Z,7.77
2017-10-19T15:56:19.955Z,6.70
2017-10-19T15:58:50.803Z,7.27
2017-10-19T16:01:21.654Z,7.63
2017-10-19T16:03:52.502Z,6.63
2017-10-19T16:06:23.355Z,6.40
2017-10-19T16:08:54.211Z,8.70
2017-10-19T16:11:25.085Z,7.33
2017-10-19T16:13:55.936Z,7.43
2017-10-19T16:16:26.764Z,7.00
2017-10-19T16:18:57.595Z,6.63
2017-10-19T16:21:28.470Z,7.60
2017-10-19T16:23:59.326Z,6.40
2017-10-19T16:26:30.169Z,6.60
2017-10-19T16:29:01.049Z,6.37
2017-10-19T16:31:31.905Z,5.83
2017-10-19T16:34:02.778Z,6.77
2017-10-19T16:36:33.625Z,7.60
2017-10-19T16:39:04.543Z,7.40
2017-10-19T16:41:35.399Z,5.70
2017-10-19T16:44:06.273Z,6.00
2017-10-19T16:46:37.129Z,5.80
2017-10-19T16:49:07.983Z,7.00
2017-10-19T16:51:38.835Z,5.27
2017-10-19T16:54:09.720Z,5.93
2017-10-19T16:56:40.564Z,6.57
2017-10-19T16:59:11.452Z,5.13
2017-10-19T17:01:42.298Z,5.83
2017-10-19T17:04:13.171Z,6.10
2017-10-19T17:06:44.032Z,5.90
2017-10-19T17:09:14.873Z,5.80
2017-10-19T17:11:45.729Z,6.27
2017-10-19T17:14:16.607Z,5.23
2017-10-19T17:16:47.503Z,8.97
2017-10-19T17:19:18.465Z,5.70
2017-10-19T17:21:49.509Z,5.93
2017-10-19T17:24:20.552Z,5.90
2017-10-19T17:26:51.498Z,5.47
2017-10-19T17:29:22.436Z,5.67
2017-10-19T17:31:53.632Z,5.23
2017-10-19T17:34:24.547Z,5.87
2017-10-19T17:36:55.469Z,5.93
2017-10-19T17:39:26.364Z,6.13
2017-10-19T17:41:57.292Z,6.20
2017-10-19T17:44:28.176Z,5.10
2017-10-19T17:46:59.174Z,5.90
2017-10-19T17:49:30.154Z,5.82
2017-10-19T17:52:01.199Z,5.83
2017-10-19T17:54:32.341Z,6.43
2017-10-19T17:57:03.320Z,6.40
2017-10-19T17:59:34.364Z,4.80
2017-10-19T18:02:05.373Z,5.70
2017-10-19T18:04:36.316Z,6.37
2017-10-19T18:07:07.287Z,5.70
2017-10-19T18:09:38.223Z,6.63
2017-10-19T18:12:09.120Z,5.83
2017-10-19T18:14:40.013Z,5.67
2017-10-19T18:17:11.565Z,4.97
2017-10-19T18:19:42.659Z,6.10
2017-10-19T18:22:13.658Z,5.50
2017-10-19T18:24:44.539Z,7.00
2017-10-19T18:27:15.486Z,6.20
2017-10-19T18:29:46.420Z,5.47
2017-10-19T18:32:17.338Z,5.13
2017-10-19T18:34:48.611Z,6.10
2017-10-19T18:37:19.747Z,5.20
2017-10-19T18:39:50.894Z,6.85
2017-10-19T18:42:22.138Z,5.18
2017-10-19T18:44:53.384Z,5.87
2017-10-19T18:47:24.637Z,4.75
2017-10-19T18:49:56.084Z,4.87
2017-10-19T18:52:27.347Z,5.40
2017-10-19T18:54:58.681Z,6.15
2017-10-19T18:57:31.069Z,7.55
2017-10-19T19:00:02.408Z,5.45
2017-10-19T19:02:33.697Z,5.87
2017-10-19T19:05:05.205Z,6.53
2017-10-19T19:07:36.453Z,5.60
2017-10-19T19:10:07.906Z,5.05
2017-10-19T19:12:39.468Z,6.70
2017-10-19T19:15:10.730Z,5.45
2017-10-19T19:17:42.062Z,6.35
2017-10-19T19:20:13.708Z,5.97
2017-10-19T19:22:44.982Z,6.78
2017-10-19T19:25:16.407Z,5.55
2017-10-19T19:27:47.765Z,6.25
2017-10-19T19:30:19.620Z,5.50
2017-10-19T19:32:50.931Z,12.23
2017-10-19T19:35:22.227Z,7.37
2017-10-19T19:37:54.607Z,9.20
2017-10-19T19:40:26.345Z,7.15
2017-10-19T19:42:57.709Z,9.55
2017-10-19T19:45:29.155Z,10.10
2017-10-19T19:48:00.597Z,7.97
2017-10-19T19:50:32.048Z,8.30
2017-10-19T19:53:03.199Z,8.43
2017-10-19T19:55:34.374Z,10.27
2017-10-19T19:58:05.690Z,8.68
2017-10-19T20:00:37.050Z,8.23
2017-10-19T20:03:08.288Z,10.45
2017-10-19T20:05:39.738Z,9.40
2017-10-19T20:08:11.012Z,11.25
2017-10-19T20:10:42.434Z,9.23
2017-10-19T20:13:13.884Z,7.15
2017-10-19T20:15:45.137Z,10.10
2017-10-19T20:18:16.405Z,10.43
2017-10-19T20:20:47.639Z,10.10
2017-10-19T20:23:18.873Z,7.93
2017-10-19T20:25:49.914Z,10.73
2017-10-19T20:28:20.866Z,7.25
2017-10-19T20:30:51.722Z,9.20
2017-10-19T20:33:22.590Z,7.50
2017-10-19T20:35:53.443Z,6.63
2017-10-19T20:38:24.313Z,8.63
2017-10-19T20:40:55.190Z,8.10
2017-10-19T20:43:26.037Z,7.87
2017-10-19T20:45:57.151Z,7.33
2017-10-19T20:48:27.991Z,9.85
2017-10-19T20:50:58.873Z,11.03
2017-10-19T20:53:29.720Z,14.00
2017-10-19T20:56:00.590Z,13.23
2017-10-19T20:58:31.447Z,9.40
2017-10-19T21:01:02.300Z,10.67
2017-10-19T21:03:33.143Z,14.20
2017-10-19T21:06:04.011Z,11.60
2017-10-19T21:08:34.858Z,12.30
2017-10-19T21:11:05.703Z,17.33
2017-10-19T21:13:36.578Z,9.97
2017-10-19T21:16:07.440Z,12.57
2017-10-19T21:18:38.281Z,10.73
2017-10-19T21:21:09.156Z,10.23
2017-10-19T21:23:40.005Z,12.20
2017-10-19T21:26:10.860Z,12.40
2017-10-19T21:28:41.753Z,16.93
2017-10-19T21:31:12.632Z,37.20
2017-10-19T21:33:43.475Z,24.17
2017-10-19T21:36:14.328Z,33.63
2017-10-19T21:38:45.180Z,21.87
2017-10-19T21:41:16.028Z,15.97
2017-10-19T21:43:46.880Z,27.63
2017-10-19T21:46:17.745Z,27.73
2017-10-19T21:48:48.591Z,28.97
2017-10-19T21:51:19.507Z,23.53
2017-10-19T21:53:50.348Z,23.20
2017-10-19T21:56:21.200Z,22.83
2017-10-19T21:58:52.063Z,24.07
2017-10-19T22:01:22.912Z,22.37
2017-10-19T22:03:53.792Z,23.80
2017-10-19T22:06:24.629Z,19.63
2017-10-19T22:08:55.464Z,20.00
2017-10-19T22:11:26.336Z,28.23
2017-10-19T22:13:57.195Z,23.70
2017-10-19T22:16:28.062Z,19.27
2017-10-19T22:18:58.916Z,19.63
2017-10-19T22:21:29.795Z,23.30
2017-10-19T22:24:00.634Z,21.33
2017-10-19T22:26:31.531Z,17.73
2017-10-19T22:29:02.368Z,21.07
2017-10-19T22:31:33.225Z,18.00
2017-10-19T22:34:04.064Z,20.10
2017-10-19T22:36:35.496Z,16.60
2017-10-19T22:39:06.387Z,16.05
2017-10-19T22:41:37.258Z,17.53
2017-10-19T22:44:08.121Z,17.80
2017-10-19T22:46:38.987Z,16.80
2017-10-19T22:49:09.826Z,10.60
2017-10-19T22:51:40.682Z,14.93
2017-10-19T22:54:11.533Z,15.63
2017-10-19T22:56:42.401Z,23.73
2017-10-19T22:59:13.259Z,17.43
2017-10-19T23:01:44.137Z,12.30
2017-10-19T23:04:15.004Z,18.67
2017-10-19T23:06:45.875Z,16.60
2017-10-19T23:09:16.716Z,16.07
2017-10-19T23:11:47.566Z,13.67
2017-10-19T23:14:18.420Z,14.20
2017-10-19T23:16:49.240Z,15.13
2017-10-19T23:19:20.108Z,13.60
2017-10-19T23:21:50.951Z,15.73
2017-10-19T23:24:21.811Z,15.87
2017-10-19T23:26:52.652Z,12.13
2017-10-19T23:29:23.518Z,14.77
2017-10-19T23:31:54.356Z,17.83
2017-10-19T23:34:25.217Z,12.73
2017-10-19T23:36:56.049Z,13.97
2017-10-19T23:39:27.040Z,14.20
2017-10-19T23:41:57.883Z,15.17
2017-10-19T23:44:28.756Z,16.17
2017-10-19T23:46:59.610Z,12.60
2017-10-19T23:49:30.462Z,12.47
2017-10-19T23:52:01.295Z,14.37
2017-10-19T23:54:32.155Z,13.83
2017-10-19T23:57:02.984Z,10.77
2017-10-19T23:59:33.820Z,12.50
